createdAt,value
2023-04-18T00:01:30.573Z,94.80
2023-04-18T00:04:19.321Z,94.80
2023-04-18T00:07:05.278Z,94.80
2023-04-18T00:09:50.875Z,94.70
2023-04-18T00:12:37.323Z,94.80
2023-04-18T00:15:22.463Z,94.90
2023-04-18T00:18:08.448Z,94.90
2023-04-18T00:20:54.494Z,94.90
2023-04-18T00:23:43.241Z,95.00
2023-04-18T00:26:28.901Z,95.00
2023-04-18T00:29:15.850Z,95.10
2023-04-18T00:32:01.328Z,95.00
2023-04-18T00:34:49.307Z,95.00
2023-04-18T00:37:35.363Z,94.90
2023-04-18T00:40:24.137Z,94.90
2023-04-18T00:43:09.479Z,94.70
2023-04-18T00:45:57.226Z,94.50
2023-04-18T00:48:44.551Z,94.50
2023-04-18T00:51:30.467Z,94.40
2023-04-18T00:54:18.428Z,94.50
2023-04-18T00:57:04.170Z,94.40
2023-04-18T00:59:50.334Z,94.30
2023-04-18T01:02:36.757Z,94.40
2023-04-18T01:05:23.601Z,94.30
2023-04-18T01:08:09.183Z,94.30
2023-04-18T01:10:54.715Z,94.10
2023-04-18T01:13:39.903Z,94.00
2023-04-18T01:16:27.027Z,93.80
2023-04-18T01:19:13.129Z,93.70
2023-04-18T01:21:59.360Z,93.80
2023-04-18T01:24:48.992Z,93.60
2023-04-18T01:27:36.074Z,93.50
2023-04-18T01:30:21.427Z,93.40
2023-04-18T01:33:07.406Z,93.30
2023-04-18T01:35:52.769Z,93.00
2023-04-18T01:38:38.072Z,93.00
2023-04-18T01:41:23.634Z,92.90
2023-04-18T01:44:12.554Z,92.90
2023-04-18T01:46:58.546Z,92.80
2023-04-18T01:49:48.198Z,92.70
2023-04-18T01:52:33.764Z,92.90
2023-04-18T01:55:20.626Z,92.70
2023-04-18T01:58:06.239Z,92.50
2023-04-18T02:00:57.216Z,92.20
2023-04-18T02:03:42.918Z,91.90
2023-04-18T02:06:28.462Z,91.50
2023-04-18T02:09:14.122Z,91.20
2023-04-18T02:12:02.832Z,90.80
2023-04-18T02:14:53.069Z,90.50
2023-04-18T02:17:38.613Z,90.30
2023-04-18T02:20:26.169Z,90.20
2023-04-18T02:23:12.047Z,90.10
2023-04-18T02:25:57.677Z,89.80
2023-04-18T02:28:43.080Z,89.70
2023-04-18T02:31:28.869Z,89.50
2023-04-18T02:34:14.120Z,88.80
2023-04-18T02:36:59.926Z,88.50
2023-04-18T02:39:45.700Z,88.20
2023-04-18T02:42:31.497Z,87.90
2023-04-18T02:45:20.454Z,87.50
2023-04-18T02:48:05.760Z,87.10
2023-04-18T02:50:52.810Z,87.00
2023-04-18T02:53:38.027Z,87.20
2023-04-18T02:56:24.206Z,87.20
2023-04-18T02:59:45.186Z,87.30
2023-04-18T03:02:53.330Z,87.20
2023-04-18T03:05:52.432Z,87.00
2023-04-18T03:08:38.635Z,86.80
2023-04-18T03:11:25.966Z,86.60
2023-04-18T03:14:12.831Z,86.30
2023-04-18T03:17:04.854Z,85.90
2023-04-18T03:19:55.982Z,86.80
2023-04-18T03:22:44.823Z,86.10
2023-04-18T03:25:35.285Z,86.00
2023-04-18T03:28:21.834Z,86.00
2023-04-18T03:31:07.580Z,86.00
2023-04-18T03:33:55.997Z,85.60
2023-04-18T03:36:41.561Z,85.30
2023-04-18T03:39:27.416Z,85.10
2023-04-18T03:42:13.038Z,84.80
2023-04-18T03:45:00.379Z,84.10
2023-04-18T03:47:46.652Z,83.50
2023-04-18T03:50:32.226Z,83.20
2023-04-18T03:53:18.423Z,82.80
2023-04-18T03:56:07.131Z,81.90
2023-04-18T03:59:16.449Z,81.90
2023-04-18T04:02:06.100Z,82.30
2023-04-18T04:04:51.526Z,82.60
2023-04-18T04:07:37.251Z,82.40
2023-04-18T04:10:23.776Z,82.30
2023-04-18T04:13:10.123Z,82.10
2023-04-18T04:16:00.992Z,81.80
2023-04-18T04:18:46.872Z,81.40
2023-04-18T04:21:35.830Z,81.10
2023-04-18T04:24:22.691Z,80.70
2023-04-18T04:27:12.524Z,80.70
2023-04-18T04:29:58.740Z,80.80
2023-04-18T04:32:45.467Z,81.10
2023-04-18T04:35:32.276Z,81.10
2023-04-18T04:38:20.051Z,81.20
2023-04-18T04:41:07.506Z,81.40
2023-04-18T04:43:53.892Z,81.50
2023-04-18T04:46:44.778Z,81.70
2023-04-18T04:49:36.462Z,81.90
2023-04-18T04:52:22.854Z,82.20
2023-04-18T04:55:08.640Z,82.30
2023-04-18T04:57:57.450Z,82.60
2023-04-18T05:01:07.781Z,82.90
2023-04-18T05:03:54.199Z,83.50
2023-04-18T05:06:40.390Z,83.60
2023-04-18T05:09:26.167Z,83.80
2023-04-18T05:12:11.905Z,83.60
2023-04-18T05:14:57.662Z,83.30
2023-04-18T05:17:43.166Z,83.00
2023-04-18T05:20:28.672Z,82.70
2023-04-18T05:23:14.417Z,82.40
2023-04-18T05:25:59.794Z,82.00
2023-04-18T05:28:45.447Z,81.90
2023-04-18T05:31:31.275Z,81.80
2023-04-18T05:34:16.798Z,81.80
2023-04-18T05:37:04.465Z,81.70
2023-04-18T05:39:49.798Z,81.90
2023-04-18T05:42:35.276Z,81.90
2023-04-18T05:45:20.719Z,82.20
2023-04-18T05:48:06.526Z,82.00
2023-04-18T05:50:52.006Z,82.20
2023-04-18T05:53:37.378Z,82.00
2023-04-18T05:56:22.666Z,81.90
2023-04-18T05:59:10.903Z,81.80
2023-04-18T06:01:56.785Z,82.00
2023-04-18T06:04:43.010Z,82.00
2023-04-18T06:07:28.695Z,81.90
2023-04-18T06:10:14.606Z,81.80
2023-04-18T06:13:00.323Z,82.10
2023-04-18T06:15:45.419Z,81.90
2023-04-18T06:18:31.368Z,81.90
2023-04-18T06:21:16.835Z,82.00
2023-04-18T06:24:09.215Z,81.90
2023-04-18T06:26:57.669Z,81.90
2023-04-18T06:29:45.431Z,81.90
2023-04-18T06:32:31.206Z,81.80
2023-04-18T06:35:16.803Z,81.90
2023-04-18T06:38:05.477Z,81.50
2023-04-18T06:40:51.144Z,81.30
2023-04-18T06:43:36.661Z,81.10
2023-04-18T06:46:22.437Z,80.90
2023-04-18T06:49:07.758Z,80.60
2023-04-18T06:51:53.505Z,80.10
2023-04-18T06:54:38.993Z,79.70
2023-04-18T06:57:24.508Z,79.40
2023-04-18T07:00:13.662Z,78.60
2023-04-18T07:02:59.293Z,78.20
2023-04-18T07:05:45.039Z,77.60
2023-04-18T07:08:30.355Z,77.50
2023-04-18T07:11:18.406Z,77.30
2023-04-18T07:14:03.699Z,77.40
2023-04-18T07:16:56.945Z,77.00
2023-04-18T07:19:42.481Z,76.60
2023-04-18T07:22:28.130Z,77.00
2023-04-18T07:25:13.627Z,76.20
2023-04-18T07:27:59.758Z,76.00
2023-04-18T07:30:45.185Z,75.40
2023-04-18T07:33:34.128Z,74.70
2023-04-18T07:36:22.533Z,75.40
2023-04-18T07:39:08.005Z,73.80
2023-04-18T07:41:53.549Z,72.90
2023-04-18T07:44:39.207Z,72.50
2023-04-18T07:47:29.408Z,72.20
2023-04-18T07:50:15.610Z,71.80
2023-04-18T07:53:01.384Z,71.80
2023-04-18T07:55:47.004Z,71.80
2023-04-18T07:58:34.573Z,71.60
2023-04-18T08:01:25.872Z,71.70
2023-04-18T08:04:12.030Z,71.80
2023-04-18T08:06:57.736Z,71.80
2023-04-18T08:09:42.905Z,71.90
2023-04-18T08:12:28.430Z,71.70
2023-04-18T08:15:14.020Z,71.40
2023-04-18T08:18:01.206Z,71.50
2023-04-18T08:20:47.021Z,70.80
2023-04-18T08:23:32.320Z,71.00
2023-04-18T08:26:21.084Z,70.50
2023-04-18T08:29:06.628Z,70.60
2023-04-18T08:31:51.964Z,69.60
2023-04-18T08:34:38.108Z,69.30
2023-04-18T08:37:23.656Z,68.70
2023-04-18T08:40:09.665Z,68.90
2023-04-18T08:42:57.406Z,69.20
2023-04-18T08:45:44.241Z,68.90
2023-04-18T08:48:29.785Z,69.00
2023-04-18T08:51:18.740Z,68.40
2023-04-18T08:54:06.228Z,67.70
2023-04-18T08:57:05.019Z,67.50
2023-04-18T08:59:51.068Z,67.40
2023-04-18T09:02:43.062Z,67.40
2023-04-18T09:05:29.675Z,65.30
2023-04-18T09:08:27.791Z,65.10
2023-04-18T09:11:29.144Z,64.70
2023-04-18T09:14:25.979Z,63.60
2023-04-18T09:17:31.681Z,63.20
2023-04-18T09:20:30.624Z,63.50
2023-04-18T09:23:24.488Z,63.70
2023-04-18T09:26:10.071Z,62.00
2023-04-18T09:28:55.651Z,61.20
2023-04-18T09:32:01.198Z,62.10
2023-04-18T09:34:47.403Z,62.30
2023-04-18T09:37:32.917Z,62.50
2023-04-18T09:40:19.633Z,61.50
2023-04-18T09:43:21.422Z,60.20
2023-04-18T09:46:08.485Z,59.40
2023-04-18T09:48:54.107Z,59.10
2023-04-18T09:51:41.883Z,58.40
2023-04-18T09:54:31.048Z,57.90
2023-04-18T09:57:17.948Z,57.40
2023-04-18T10:00:16.993Z,58.00
2023-04-18T10:03:09.855Z,58.30
2023-04-18T10:05:57.772Z,58.90
2023-04-18T10:08:49.047Z,59.80
2023-04-18T10:11:34.649Z,58.90
2023-04-18T10:14:20.553Z,59.70
2023-04-18T10:17:06.484Z,59.10
2023-04-18T10:20:06.299Z,58.50
2023-04-18T10:22:55.043Z,57.30
2023-04-18T10:25:41.017Z,55.00
2023-04-18T10:28:27.675Z,55.30
2023-04-18T10:31:12.814Z,55.00
2023-04-18T10:37:03.761Z,53.40
2023-04-18T10:39:58.215Z,53.10
2023-04-18T10:42:46.499Z,53.30
2023-04-18T10:45:36.575Z,53.30
2023-04-18T10:51:23.726Z,53.30
2023-04-18T10:54:13.116Z,53.70
2023-04-18T10:57:03.734Z,54.20
2023-04-18T10:59:54.904Z,54.30
2023-04-18T11:02:47.627Z,54.60
2023-04-18T11:05:34.354Z,53.20
2023-04-18T11:08:23.952Z,52.50
2023-04-18T11:11:11.376Z,52.80
2023-04-18T11:14:06.364Z,52.90
2023-04-18T11:16:52.240Z,52.90
2023-04-18T11:19:37.316Z,52.70
2023-04-18T11:22:22.959Z,53.30
2023-04-18T11:25:08.636Z,53.70
2023-04-18T11:27:59.179Z,54.00
2023-04-18T11:30:46.981Z,54.30
2023-04-18T11:33:32.613Z,53.60
2023-04-18T11:36:18.364Z,53.50
2023-04-18T11:39:06.146Z,53.90
2023-04-18T11:41:51.663Z,54.40
2023-04-18T11:44:43.886Z,54.10
2023-04-18T11:47:33.082Z,53.70
2023-04-18T11:50:20.896Z,52.90
2023-04-18T11:53:06.249Z,52.90
2023-04-18T11:55:56.019Z,53.40
2023-04-18T11:58:42.881Z,53.60
2023-04-18T12:01:28.037Z,53.80
2023-04-18T12:04:14.688Z,53.70
2023-04-18T12:07:00.836Z,54.80
2023-04-18T12:09:48.472Z,53.90
2023-04-18T12:12:34.691Z,52.00
2023-04-18T12:15:26.956Z,51.80
2023-04-18T12:18:15.435Z,50.30
2023-04-18T12:21:05.053Z,50.30
2023-04-18T12:23:50.383Z,50.40
2023-04-18T12:26:45.763Z,51.10
2023-04-18T12:29:30.968Z,50.30
2023-04-18T12:32:19.030Z,48.00
2023-04-18T12:35:05.070Z,47.00
2023-04-18T12:37:52.669Z,44.70
2023-04-18T12:40:40.100Z,42.70
2023-04-18T12:43:25.879Z,41.60
2023-04-18T12:46:11.332Z,41.20
2023-04-18T12:48:57.562Z,41.90
2023-04-18T12:51:43.694Z,42.70
2023-04-18T12:54:29.222Z,43.20
2023-04-18T12:57:15.706Z,43.80
2023-04-18T13:00:01.910Z,44.70
2023-04-18T13:02:47.429Z,45.40
2023-04-18T13:05:34.171Z,46.30
2023-04-18T13:08:19.675Z,46.50
2023-04-18T13:11:08.402Z,46.90
2023-04-18T13:13:56.697Z,47.80
2023-04-18T13:16:43.636Z,47.70
2023-04-18T13:19:29.588Z,47.70
2023-04-18T13:22:15.301Z,48.40
2023-04-18T13:25:00.823Z,48.40
2023-04-18T13:27:48.327Z,48.80
2023-04-18T13:30:35.918Z,49.10
2023-04-18T13:33:21.652Z,49.40
2023-04-18T13:36:07.596Z,50.30
2023-04-18T13:38:53.713Z,50.20
2023-04-18T13:41:39.521Z,50.90
2023-04-18T13:44:31.465Z,51.00
2023-04-18T13:47:17.514Z,50.90
2023-04-18T13:50:04.117Z,50.90
2023-04-18T13:52:52.033Z,51.50
2023-04-18T13:55:37.437Z,51.40
2023-04-18T13:58:23.107Z,51.30
2023-04-18T14:01:08.461Z,51.70
2023-04-18T14:03:54.609Z,51.00
2023-04-18T14:06:42.731Z,50.00
2023-04-18T14:09:31.156Z,49.20
2023-04-18T14:12:16.418Z,47.60
2023-04-18T14:15:03.371Z,46.20
2023-04-18T14:17:49.006Z,45.80
2023-04-18T14:20:34.744Z,44.90
2023-04-18T14:23:23.573Z,43.90
2023-04-18T14:26:12.193Z,43.20
2023-04-18T14:28:58.789Z,40.60
2023-04-18T14:31:44.769Z,40.50
2023-04-18T14:34:33.305Z,40.90
2023-04-18T14:37:19.226Z,40.20
2023-04-18T14:40:05.590Z,38.80
2023-04-18T14:42:50.797Z,38.90
2023-04-18T14:45:37.937Z,38.90
2023-04-18T14:48:23.811Z,38.80
2023-04-18T14:51:09.434Z,39.70
2023-04-18T14:53:55.749Z,40.40
2023-04-18T14:56:41.021Z,41.70
2023-04-18T14:59:28.292Z,42.60
2023-04-18T15:02:13.907Z,43.20
2023-04-18T15:05:01.391Z,42.80
2023-04-18T15:07:47.918Z,42.70
2023-04-18T15:10:37.112Z,44.10
2023-04-18T15:13:22.679Z,44.20
2023-04-18T15:16:08.386Z,40.80
2023-04-18T15:18:53.921Z,40.30
2023-04-18T15:21:39.748Z,40.20
2023-04-18T15:24:25.289Z,40.50
2023-04-18T15:27:11.523Z,41.70
2023-04-18T15:29:56.993Z,41.80
2023-04-18T15:32:42.548Z,40.90
2023-04-18T15:35:28.086Z,39.20
2023-04-18T15:38:13.730Z,35.00
2023-04-18T15:40:59.914Z,32.30
2023-04-18T15:43:46.319Z,29.60
2023-04-18T15:46:31.692Z,27.90
2023-04-18T15:49:17.134Z,26.90
2023-04-18T15:52:03.230Z,26.50
2023-04-18T15:54:48.586Z,26.00
2023-04-18T15:57:34.238Z,25.50
2023-04-18T16:00:20.088Z,25.50
2023-04-18T16:03:10.022Z,26.40
2023-04-18T16:05:55.969Z,27.60
2023-04-18T16:08:44.027Z,27.50
2023-04-18T16:11:35.624Z,26.10
2023-04-18T16:14:21.266Z,25.80
2023-04-18T16:17:06.808Z,26.00
2023-04-18T16:19:52.337Z,25.50
2023-04-18T16:22:38.001Z,25.10
2023-04-18T16:25:23.110Z,25.40
2023-04-18T16:28:08.785Z,24.70
2023-04-18T16:30:55.628Z,24.20
2023-04-18T16:33:41.367Z,24.50
2023-04-18T16:36:27.249Z,24.60
2023-04-18T16:39:12.864Z,24.20
2023-04-18T16:41:58.348Z,24.20
2023-04-18T16:44:45.347Z,23.80
2023-04-18T16:47:31.371Z,24.10
2023-04-18T16:50:16.634Z,24.20
2023-04-18T16:53:02.172Z,24.40
2023-04-18T16:55:49.809Z,24.30
2023-04-18T16:58:36.447Z,24.80
2023-04-18T17:01:21.958Z,24.60
2023-04-18T17:04:07.754Z,25.20
2023-04-18T17:06:53.589Z,25.30
2023-04-18T17:09:38.885Z,25.10
2023-04-18T17:12:26.395Z,24.80
2023-04-18T17:15:12.592Z,25.10
2023-04-18T17:18:00.344Z,25.20
2023-04-18T17:20:46.033Z,25.30
2023-04-18T17:23:32.949Z,25.30
2023-04-18T17:26:18.971Z,26.00
2023-04-18T17:29:04.752Z,25.60
2023-04-18T17:31:50.173Z,25.70
2023-04-18T17:34:36.315Z,26.10
2023-04-18T17:37:22.658Z,26.20
2023-04-18T17:40:10.067Z,26.70
2023-04-18T17:42:55.487Z,26.90
2023-04-18T17:45:41.635Z,27.40
2023-04-18T17:48:26.995Z,28.00
2023-04-18T17:51:12.476Z,28.40
2023-04-18T17:53:57.795Z,28.70
2023-04-18T17:56:45.434Z,29.60
2023-04-18T17:59:30.857Z,30.20
2023-04-18T18:02:16.832Z,30.80
2023-04-18T18:05:02.222Z,31.40
2023-04-18T18:07:48.233Z,32.30
2023-04-18T18:10:35.462Z,34.40
2023-04-18T18:13:21.088Z,36.50
2023-04-18T18:16:09.119Z,37.20
2023-04-18T18:18:54.822Z,38.30
2023-04-18T18:21:41.371Z,39.20
2023-04-18T18:24:27.093Z,39.90
2023-04-18T18:27:12.836Z,41.10
2023-04-18T18:29:58.622Z,42.90
2023-04-18T18:32:43.800Z,44.20
2023-04-18T18:35:29.655Z,45.80
2023-04-18T18:38:14.908Z,47.20
2023-04-18T18:41:04.623Z,48.50
2023-04-18T18:43:51.046Z,49.70
2023-04-18T18:46:36.566Z,50.70
2023-04-18T18:49:22.053Z,51.50
2023-04-18T18:52:07.614Z,52.20
2023-04-18T18:54:53.054Z,53.30
2023-04-18T18:57:38.753Z,54.10
2023-04-18T19:00:27.160Z,55.30
2023-04-18T19:03:12.793Z,56.10
2023-04-18T19:05:58.221Z,56.90
2023-04-18T19:08:43.939Z,58.00
2023-04-18T19:11:29.623Z,58.90
2023-04-18T19:14:15.385Z,59.60
2023-04-18T19:17:00.751Z,60.00
2023-04-18T19:19:46.299Z,60.90
2023-04-18T19:22:31.908Z,61.60
2023-04-18T19:25:17.339Z,62.10
2023-04-18T19:28:04.871Z,62.50
2023-04-18T19:30:53.485Z,63.40
2023-04-18T19:33:38.999Z,64.10
2023-04-18T19:36:24.495Z,64.70
2023-04-18T19:39:09.940Z,64.90
2023-04-18T19:41:55.554Z,65.70
2023-04-18T19:44:40.960Z,66.20
2023-04-18T19:47:27.456Z,66.70
2023-04-18T19:50:13.551Z,67.20
2023-04-18T19:52:58.912Z,67.60
2023-04-18T19:55:45.125Z,67.80
2023-04-18T19:58:34.993Z,68.10
2023-04-18T20:01:21.260Z,68.70
2023-04-18T20:04:08.397Z,68.90
2023-04-18T20:06:58.600Z,69.30
2023-04-18T20:09:43.738Z,69.90
2023-04-18T20:12:29.167Z,70.40
2023-04-18T20:15:14.854Z,70.90
2023-04-18T20:18:00.421Z,71.30
2023-04-18T20:20:45.903Z,71.70
2023-04-18T20:23:31.434Z,71.90
2023-04-18T20:26:16.830Z,72.20
2023-04-18T20:29:03.621Z,72.40
2023-04-18T20:31:49.482Z,72.70
2023-04-18T20:34:34.596Z,73.00
2023-04-18T20:37:20.803Z,73.40
2023-04-18T20:40:10.884Z,73.80
2023-04-18T20:42:59.054Z,74.10
2023-04-18T20:45:46.127Z,74.40
2023-04-18T20:48:31.754Z,75.30
2023-04-18T20:51:16.973Z,74.70
2023-04-18T20:54:03.158Z,75.90
2023-04-18T20:56:48.581Z,75.40
2023-04-18T20:59:33.829Z,75.50
2023-04-18T21:02:22.958Z,75.80
2023-04-18T21:05:08.822Z,76.00
2023-04-18T21:07:56.968Z,77.00
2023-04-18T21:10:42.816Z,76.50
2023-04-18T21:13:28.698Z,76.70
2023-04-18T21:16:14.028Z,76.80
2023-04-18T21:18:59.994Z,76.80
2023-04-18T21:21:48.155Z,76.90
2023-04-18T21:24:36.219Z,76.80
2023-04-18T21:27:21.593Z,77.00
2023-04-18T21:30:07.727Z,77.10
2023-04-18T21:32:53.201Z,77.00
2023-04-18T21:35:38.455Z,77.00
2023-04-18T21:38:25.760Z,76.70
2023-04-18T21:41:14.779Z,76.80
2023-04-18T21:44:00.618Z,76.80
2023-04-18T21:46:46.074Z,76.70
2023-04-18T21:49:31.580Z,76.60
2023-04-18T21:52:17.354Z,76.80
2023-04-18T21:55:03.247Z,76.60
2023-04-18T21:57:49.973Z,76.80
2023-04-18T22:00:35.629Z,76.80
2023-04-18T22:03:21.186Z,76.80
2023-04-18T22:06:06.984Z,76.90
2023-04-18T22:08:52.783Z,77.10
2023-04-18T22:11:38.441Z,77.10
2023-04-18T22:14:24.929Z,77.20
2023-04-18T22:17:10.472Z,77.00
2023-04-18T22:19:56.215Z,77.20
2023-04-18T22:22:41.893Z,77.40
2023-04-18T22:25:27.430Z,77.50
2023-04-18T22:28:12.965Z,77.40
2023-04-18T22:30:58.516Z,77.50
2023-04-18T22:33:43.880Z,77.50
2023-04-18T22:36:31.307Z,77.40
2023-04-18T22:39:16.754Z,77.40
2023-04-18T22:42:05.389Z,77.70
2023-04-18T22:44:50.962Z,77.70
2023-04-18T22:47:36.252Z,77.90
2023-04-18T22:50:21.958Z,77.70
2023-04-18T22:53:07.126Z,77.80
2023-04-18T22:55:52.642Z,77.90
2023-04-18T22:58:38.355Z,78.10
2023-04-18T23:01:23.482Z,78.10
2023-04-18T23:04:11.930Z,77.90
2023-04-18T23:06:58.881Z,77.90
2023-04-18T23:09:44.882Z,78.20
2023-04-18T23:12:30.488Z,78.60
2023-04-18T23:15:16.018Z,78.60
2023-04-18T23:18:01.767Z,78.70
2023-04-18T23:20:50.948Z,78.80
2023-04-18T23:23:36.318Z,78.90
2023-04-18T23:26:23.885Z,79.00
2023-04-18T23:29:09.853Z,80.30
2023-04-18T23:31:55.584Z,79.50
2023-04-18T23:34:41.198Z,79.70
2023-04-18T23:37:26.428Z,79.80
2023-04-18T23:40:12.255Z,80.10
2023-04-18T23:42:57.903Z,80.00
2023-04-18T23:45:43.357Z,80.20
2023-04-18T23:48:28.958Z,80.50
2023-04-18T23:51:16.742Z,80.50
2023-04-18T23:54:02.281Z,81.30
2023-04-18T23:56:47.622Z,80.50
2023-04-18T23:59:33.251Z,80.70
